Impacts METAR Board
IDs:

KHUM - Houma/Terrebonne Arp, LA, US

Updated at: 2100 UTC 02 Oct 2022
Potential Impact None Slight Moderate High
Time 02/09Z 02/10Z 02/11Z 02/12Z 02/13Z 02/14Z 02/15Z 02/16Z 02/17Z 02/18Z 02/19Z 02/20Z 02/21Z
Temp58 54 55 57 66 72 79 81 81 82 82 82
Dewpt54 53 54 55 57 57 55 54 48 48 46 46
Altim30.03 30.04 30.06 30.08 30.08 30.10 30.10 30.09 30.08 30.05 30.04 30.03
VIS10 7 7 7 7 7 7 7 7 7 7 7
CIG-- -- -- -- -- -- -- -- -- -- -- --
CoverCLRCLRCLRCLRCLRCLRCLRCLRCLRCLRCLRCLR
FltCatVFRVFRVFRVFRVFRVFRVFRVFRVFRVFRVFRVFR
WX------------------------
WDir000003203603033010350350
WSpd0 0 0 0 0 3 5 8 6 8 8 8
WGst-- -- -- -- -- -- -- -- -- -- -- --
Raw hourly METARs
KHUM 020855Z AUTO 00000KT 10SM CLR 15/12 A3003 RMK AO2 T01460121
KHUM 020955Z AUTO 00000KT 7SM CLR 12/12 A3004 RMK AO2 T01240116

KHUM 021150Z 00000KT 7SM CLR 13/12 A3006
KHUM 021245Z 00000KT 7SM CLR 14/13 A3008
KHUM 021350Z 00000KT 7SM CLR 19/14 A3008
KHUM 021450Z 32003KT 7SM CLR 22/14 A3010
KHUM 021547Z 36005KT 7SM CLR 26/13 A3010
KHUM 021647Z 03008KT 7SM CLR 27/12 A3009
KHUM 021747Z 33006KT 7SM CLR 27/09 A3008
KHUM 021847Z 01008KT 7SM CLR 28/09 A3005
KHUM 021947Z 35008KT 7SM CLR 28/08 A3004
KHUM 022047Z 35008KT 7SM CLR 28/08 A3003



Page loaded:  21:40 UTC  |   02:40 PM Pacific  |   03:40 PM Mountain  |   04:40 PM Central  |   05:40 PM Eastern

 

ADVISORIES

FORECASTS

FORECASTS

OBSERVATIONS

USER TOOLS

ABOUT US